Time;durP1;ratioP1;P1;durP2;ratioP2;P2;SDS_P1;SDS_P2;PMS_P1;PMS_P2;Temp;Humidity;BMP_temperature;BMP_pressure;BME280_temperature;BME280_humidity;BME280_pressure;Samples;Min_cycle;Max_cycle;Signal;HPM_P1;HPM_P2
2022/01/24 00:00:52;;;;;;;60.38;22.13;;;6.10;99.90;;;;;;4899437;29;20028;-77
2022/01/24 00:03:18;;;;;;;42.42;20.23;;;6.10;99.90;;;;;;4899229;29;20031;-77
2022/01/24 00:05:44;;;;;;;63.70;22.55;;;6.10;99.90;;;;;;4899274;29;20153;-77
2022/01/24 00:08:10;;;;;;;48.28;20.85;;;6.10;99.90;;;;;;4898872;29;20400;-76
2022/01/24 00:10:38;;;;;;;41.65;18.95;;;6.10;99.90;;;;;;4899042;29;20028;-77
2022/01/24 00:26:51;;;;;;;31.88;17.77;;;5.70;99.90;;;;;;4898777;29;20077;-77
2022/01/24 00:29:22;;;;;;;37.40;17.67;;;5.80;99.90;;;;;;4898812;29;20040;-77
2022/01/24 00:31:48;;;;;;;32.05;18.10;;;5.80;99.90;;;;;;4898932;29;20028;-76
2022/01/24 00:34:15;;;;;;;39.22;18.05;;;5.90;99.90;;;;;;4898588;29;20052;-77
2022/01/24 00:36:42;;;;;;;37.33;18.13;;;5.90;99.90;;;;;;4898231;29;20068;-77
2022/01/24 00:39:08;;;;;;;32.75;18.13;;;6.00;99.90;;;;;;4898677;29;20390;-77
2022/01/24 00:41:46;;;;;;;31.17;17.60;;;6.00;99.90;;;;;;4898331;29;20087;-78
2022/01/24 00:47:00;;;;;;;35.88;16.73;;;6.10;99.90;;;;;;4898498;29;20029;-76
2022/01/24 00:54:52;;;;;;;34.30;12.85;;;6.20;99.90;;;;;;4897777;29;20028;-76
2022/01/24 00:57:19;;;;;;;45.78;20.05;;;6.20;99.90;;;;;;4897779;29;20044;-76
2022/01/24 00:59:45;;;;;;;34.22;17.45;;;6.30;99.90;;;;;;4897890;29;20034;-76
2022/01/24 01:02:11;;;;;;;30.85;13.27;;;6.40;99.90;;;;;;4897346;29;20029;-76
2022/01/24 01:05:02;;;;;;;60.00;21.88;;;6.40;99.90;;;;;;4898125;29;20024;-77
2022/01/24 01:18:16;;;;;;;43.90;15.77;;;6.30;99.90;;;;;;4897909;29;20494;-76
2022/01/24 01:23:21;;;;;;;30.55;12.90;;;6.50;99.90;;;;;;4897480;29;20444;-75
2022/01/24 01:25:48;;;;;;;32.08;12.23;;;6.70;99.90;;;;;;4897260;29;20120;-77
2022/01/24 01:28:14;;;;;;;24.38;9.57;;;6.80;99.90;;;;;;4897695;29;20111;-77
2022/01/24 01:30:45;;;;;;;24.08;8.45;;;6.90;99.90;;;;;;4897863;29;20016;-77
2022/01/24 01:52:27;;;;;;;9.70;5.00;;;7.60;99.90;;;;;;4897083;29;21108;-76
2022/01/24 01:55:08;;;;;;;10.68;4.60;;;7.60;99.90;;;;;;4897331;29;20093;-77
2022/01/24 01:57:36;;;;;;;8.17;4.90;;;7.70;99.90;;;;;;4897330;29;20531;-77
2022/01/24 02:00:04;;;;;;;7.68;4.18;;;7.60;99.90;;;;;;4897851;29;20056;-77
2022/01/24 02:02:29;;;;;;;7.70;4.30;;;7.70;99.90;;;;;;4903368;29;20029;-76
2022/01/24 02:04:55;;;;;;;9.30;4.97;;;7.60;99.90;;;;;;4903286;29;20485;-79
2022/01/24 02:07:22;;;;;;;11.57;4.88;;;7.70;99.90;;;;;;4903338;29;20031;-77
2022/01/24 02:09:47;;;;;;;7.15;4.28;;;7.60;99.90;;;;;;4901983;29;20470;-77
2022/01/24 02:12:14;;;;;;;8.63;4.63;;;7.60;99.90;;;;;;4903196;29;20028;-76
2022/01/24 02:14:48;;;;;;;13.20;4.35;;;7.60;99.90;;;;;;4903684;29;20043;-76
2022/01/24 02:17:20;;;;;;;7.78;4.93;;;7.50;99.90;;;;;;4903506;29;20028;-77
2022/01/24 02:20:09;;;;;;;8.45;4.95;;;7.60;99.90;;;;;;4903632;29;20027;-78
2022/01/24 02:22:46;;;;;;;11.27;4.68;;;7.50;99.90;;;;;;4903139;29;20052;-76
2022/01/24 02:25:24;;;;;;;10.80;5.13;;;7.50;99.90;;;;;;4903355;29;20025;-76
2022/01/24 02:27:56;;;;;;;8.48;5.20;;;7.40;99.90;;;;;;4903399;29;20508;-76
2022/01/24 02:32:51;;;;;;;6.65;4.65;;;7.40;99.90;;;;;;4903461;29;20028;-77
2022/01/24 02:35:17;;;;;;;9.90;4.50;;;7.40;99.90;;;;;;4886294;29;20113;-75
2022/01/24 02:37:43;;;;;;;9.88;6.75;;;7.40;99.90;;;;;;4902202;29;20077;-76
2022/01/24 02:40:14;;;;;;;8.23;5.07;;;7.40;99.90;;;;;;4902945;29;20060;-74
2022/01/24 02:48:28;;;;;;;11.18;4.68;;;7.40;99.90;;;;;;4922022;29;20031;-76
2022/01/24 02:53:47;;;;;;;10.40;5.40;;;7.40;99.90;;;;;;4921926;29;20024;-76
2022/01/24 02:56:12;;;;;;;9.27;4.97;;;7.40;99.90;;;;;;4921473;29;20047;-78
2022/01/24 02:58:38;;;;;;;10.57;5.05;;;7.40;99.90;;;;;;4922030;29;20028;-78
2022/01/24 03:01:07;;;;;;;9.15;4.50;;;7.40;99.90;;;;;;4922049;29;20028;-77
2022/01/24 03:03:34;;;;;;;8.13;4.72;;;7.40;99.90;;;;;;4921730;29;20099;-76
2022/01/24 03:06:00;;;;;;;12.73;4.75;;;7.40;99.90;;;;;;4903908;29;20166;-75
2022/01/24 03:08:25;;;;;;;17.45;4.20;;;7.40;99.90;;;;;;4921796;29;20060;-75
2022/01/24 03:10:52;;;;;;;7.90;4.50;;;7.40;99.90;;;;;;4921669;29;20111;-74
2022/01/24 03:15:52;;;;;;;7.93;4.55;;;7.40;99.90;;;;;;4918325;29;20500;-76
2022/01/24 03:18:19;;;;;;;9.85;4.70;;;7.30;99.90;;;;;;4918031;29;20083;-75
2022/01/24 03:20:46;;;;;;;12.70;5.18;;;7.30;99.90;;;;;;4917585;29;20123;-78
2022/01/24 03:23:16;;;;;;;11.63;4.97;;;7.20;99.90;;;;;;4918498;29;20032;-77
2022/01/24 03:25:42;;;;;;;14.93;5.38;;;7.20;99.90;;;;;;4918312;29;20031;-75
2022/01/24 03:28:08;;;;;;;8.48;4.82;;;7.20;99.90;;;;;;4918188;29;20028;-76
2022/01/24 03:30:36;;;;;;;7.63;4.75;;;7.10;99.90;;;;;;4918494;29;20030;-78
2022/01/24 03:33:02;;;;;;;11.48;4.38;;;7.10;99.90;;;;;;4901312;29;20028;-78
2022/01/24 03:35:28;;;;;;;7.88;4.28;;;7.10;99.90;;;;;;4918712;29;20367;-74
2022/01/24 03:37:54;;;;;;;9.75;4.53;;;7.00;99.90;;;;;;4918539;29;20036;-76
2022/01/24 03:40:19;;;;;;;10.43;4.32;;;7.00;99.90;;;;;;4917858;29;20083;-76
2022/01/24 03:42:45;;;;;;;10.50;5.10;;;6.90;99.90;;;;;;4901074;29;20032;-75
2022/01/24 03:45:12;;;;;;;10.52;4.60;;;6.90;99.90;;;;;;4918406;29;20099;-75
2022/01/24 03:50:19;;;;;;;9.95;4.47;;;6.80;99.90;;;;;;4918278;29;20123;-76
2022/01/24 03:52:45;;;;;;;9.27;4.57;;;6.80;99.90;;;;;;4917993;29;20036;-78
2022/01/24 03:55:11;;;;;;;10.43;4.88;;;6.80;99.90;;;;;;4917957;29;20155;-79
2022/01/24 03:57:38;;;;;;;12.57;5.15;;;6.80;99.90;;;;;;4917731;29;20036;-76
2022/01/24 04:00:06;;;;;;;5.97;4.03;;;6.80;99.90;;;;;;4918180;29;20016;-76
2022/01/24 04:02:32;;;;;;;10.70;4.78;;;6.70;99.90;;;;;;4917813;29;20039;-76
2022/01/24 04:04:58;;;;;;;8.35;4.57;;;6.70;99.90;;;;;;4918243;29;20079;-75
2022/01/24 04:07:23;;;;;;;11.95;4.75;;;6.60;99.90;;;;;;4918059;29;20099;-75
2022/01/24 04:09:50;;;;;;;7.25;4.72;;;6.60;99.90;;;;;;4919019;29;20043;-73
2022/01/24 04:12:16;;;;;;;10.25;4.88;;;6.60;99.90;;;;;;4927379;29;20020;-76
2022/01/24 04:22:20;;;;;;;8.60;4.55;;;6.40;99.90;;;;;;4917771;29;20044;-76
2022/01/24 04:24:47;;;;;;;6.28;4.43;;;6.40;99.90;;;;;;4923211;29;20020;-76
2022/01/24 04:27:13;;;;;;;9.27;4.47;;;6.40;99.90;;;;;;4918777;29;20024;-74
2022/01/24 04:29:40;;;;;;;6.72;4.22;;;6.40;99.90;;;;;;4924077;29;20031;-76
2022/01/24 04:32:06;;;;;;;6.82;4.53;;;6.40;99.90;;;;;;4919883;29;20032;-75
2022/01/24 04:34:32;;;;;;;9.05;4.82;;;6.30;99.90;;;;;;4916686;29;20083;-77
2022/01/24 04:36:58;;;;;;;7.57;4.30;;;6.30;99.90;;;;;;4926041;29;20028;-76
2022/01/24 04:39:24;;;;;;;7.72;5.47;;;6.30;99.90;;;;;;4930198;29;20027;-76
2022/01/24 04:41:54;;;;;;;10.77;5.75;;;6.30;99.90;;;;;;4936233;29;20564;-76
2022/01/24 04:54:52;;;;;;;7.78;4.88;;;6.00;99.90;;;;;;4927001;29;20031;-76
2022/01/24 04:57:25;;;;;;;12.27;5.60;;;5.90;99.90;;;;;;4900069;29;20040;-76
2022/01/24 04:59:52;;;;;;;8.43;5.35;;;5.90;99.90;;;;;;4924253;29;20059;-76
2022/01/24 05:02:19;;;;;;;7.32;4.75;;;5.80;99.90;;;;;;4929637;29;20194;-76
2022/01/24 05:04:46;;;;;;;14.88;5.43;;;5.80;99.90;;;;;;4936039;29;20047;-76
2022/01/24 05:07:11;;;;;;;8.93;5.30;;;5.80;99.90;;;;;;4918802;29;20032;-76
2022/01/24 05:09:57;;;;;;;8.57;5.35;;;5.80;99.90;;;;;;4928631;29;20415;-74
2022/01/24 05:23:30;;;;;;;13.70;5.85;;;6.00;99.90;;;;;;4935953;29;20512;-74
2022/01/24 05:25:58;;;;;;;9.02;5.90;;;6.10;99.90;;;;;;4897223;29;20028;-76
2022/01/24 05:28:24;;;;;;;9.32;5.70;;;6.10;99.90;;;;;;4897563;29;20435;-76
2022/01/24 05:30:50;;;;;;;12.00;6.55;;;6.00;99.90;;;;;;4897620;29;20084;-76
2022/01/24 05:33:16;;;;;;;8.25;5.43;;;6.00;99.90;;;;;;4925747;29;20500;-76
2022/01/24 05:35:42;;;;;;;10.80;6.35;;;5.90;99.90;;;;;;4893987;29;20069;-76
2022/01/24 05:38:10;;;;;;;10.90;6.45;;;5.90;99.90;;;;;;4934796;29;20027;-76
2022/01/24 05:40:37;;;;;;;11.00;6.03;;;5.90;99.90;;;;;;4920322;29;20039;-76
2022/01/24 05:43:03;;;;;;;12.48;6.20;;;5.90;99.90;;;;;;4916158;29;20074;-74
2022/01/24 05:45:29;;;;;;;10.80;6.70;;;5.90;99.90;;;;;;4917839;29;20444;-76
2022/01/24 05:47:54;;;;;;;13.57;6.85;;;5.90;99.90;;;;;;4917560;29;20115;-76
2022/01/24 05:50:20;;;;;;;13.05;7.10;;;5.90;99.90;;;;;;4932058;29;20028;-76
2022/01/24 05:52:46;;;;;;;11.70;6.70;;;5.80;99.90;;;;;;4915788;29;20044;-79
2022/01/24 05:55:12;;;;;;;12.75;6.95;;;5.70;99.90;;;;;;4922618;29;20233;-77
2022/01/24 05:57:38;;;;;;;11.68;7.05;;;5.70;99.90;;;;;;4935481;29;20510;-76
2022/01/24 06:00:07;;;;;;;14.18;6.60;;;5.70;99.90;;;;;;4921495;29;20052;-77
2022/01/24 06:02:33;;;;;;;16.25;7.30;;;5.70;99.90;;;;;;4915788;29;20476;-77
2022/01/24 06:04:58;;;;;;;12.13;5.72;;;5.60;99.90;;;;;;4918546;29;20024;-77
2022/01/24 06:07:24;;;;;;;10.02;6.78;;;5.60;99.90;;;;;;4903836;29;20476;-76
2022/01/24 06:09:50;;;;;;;14.82;7.03;;;5.70;99.90;;;;;;4920138;29;20076;-77
2022/01/24 06:12:15;;;;;;;9.73;6.53;;;5.70;99.90;;;;;;4900609;29;20093;-77
2022/01/24 06:14:41;;;;;;;15.82;7.38;;;5.70;99.90;;;;;;4916522;29;20035;-76
2022/01/24 06:17:08;;;;;;;12.52;6.88;;;5.80;99.90;;;;;;4924555;29;20040;-77
2022/01/24 06:19:33;;;;;;;14.40;6.70;;;5.80;99.90;;;;;;4935007;29;20556;-77
2022/01/24 06:21:59;;;;;;;13.57;7.72;;;5.90;99.90;;;;;;4930425;29;20103;-77
2022/01/24 06:24:25;;;;;;;12.30;7.00;;;5.90;99.90;;;;;;4915998;29;20458;-77
2022/01/24 06:26:51;;;;;;;10.95;7.25;;;5.90;99.90;;;;;;4915484;29;20540;-77
2022/01/24 06:29:18;;;;;;;13.90;7.10;;;5.90;99.90;;;;;;4914970;29;20454;-77
2022/01/24 06:31:44;;;;;;;12.88;7.03;;;6.00;99.90;;;;;;4915711;29;20080;-77
2022/01/24 06:34:09;;;;;;;15.07;7.75;;;6.00;99.90;;;;;;4927450;29;20099;-77
2022/01/24 06:36:35;;;;;;;11.65;6.97;;;6.00;99.90;;;;;;4934136;29;20511;-78
2022/01/24 06:39:02;;;;;;;11.57;7.82;;;6.00;99.90;;;;;;4922991;29;20035;-76
2022/01/24 06:41:32;;;;;;;12.80;7.50;;;6.10;99.90;;;;;;4906935;29;20490;-80
2022/01/24 06:43:58;;;;;;;16.25;7.93;;;6.10;99.90;;;;;;4925625;29;20058;-78
2022/01/24 06:46:24;;;;;;;17.77;8.13;;;6.20;99.90;;;;;;4915778;29;20024;-79
2022/01/24 06:48:50;;;;;;;11.88;7.30;;;6.20;99.90;;;;;;4919178;29;20031;-80
2022/01/24 06:51:18;;;;;;;15.32;8.27;;;6.30;99.90;;;;;;4918983;29;20743;-80
2022/01/24 06:53:43;;;;;;;16.23;7.60;;;6.40;99.90;;;;;;4902356;29;20083;-79
2022/01/24 06:56:09;;;;;;;12.07;7.68;;;6.40;99.90;;;;;;4918926;29;20032;-79
2022/01/24 06:58:36;;;;;;;14.98;8.00;;;6.40;99.90;;;;;;4918731;29;20092;-79
2022/01/24 07:01:03;;;;;;;13.57;7.85;;;6.40;99.90;;;;;;4918824;29;20032;-79
2022/01/24 07:03:29;;;;;;;14.07;7.10;;;6.50;99.90;;;;;;4918694;29;20414;-78
2022/01/24 07:05:55;;;;;;;12.52;7.57;;;6.60;99.90;;;;;;4919246;29;20070;-80
2022/01/24 07:08:20;;;;;;;11.25;7.72;;;6.70;99.90;;;;;;4919460;29;20383;-81
2022/01/24 07:10:46;;;;;;;13.73;8.48;;;6.70;99.90;;;;;;4918810;29;20104;-81
2022/01/24 07:13:12;;;;;;;12.30;8.13;;;6.70;99.90;;;;;;4919129;29;20491;-79
2022/01/24 07:15:47;;;;;;;21.15;8.57;;;6.60;99.90;;;;;;4918421;29;20032;-82
2022/01/24 07:20:59;;;;;;;13.20;8.57;;;6.60;99.90;;;;;;4919410;29;20024;-77
2022/01/24 07:23:25;;;;;;;21.02;8.80;;;6.70;99.90;;;;;;4919010;29;20092;-80
2022/01/24 07:25:52;;;;;;;17.92;8.60;;;6.70;99.90;;;;;;4918602;29;20040;-81
2022/01/24 07:28:18;;;;;;;15.00;8.25;;;6.80;99.90;;;;;;4901140;29;20024;-82
2022/01/24 07:30:44;;;;;;;11.63;8.10;;;6.70;99.90;;;;;;4918072;29;20039;-80
2022/01/24 07:33:11;;;;;;;17.05;8.18;;;6.80;99.90;;;;;;4918306;29;20031;-81
2022/01/24 07:35:37;;;;;;;16.27;7.40;;;6.90;99.90;;;;;;4918669;29;20362;-81
2022/01/24 07:38:05;;;;;;;11.93;7.35;;;6.90;99.90;;;;;;4918326;29;20069;-81
2022/01/24 07:40:37;;;;;;;14.57;7.68;;;7.00;99.90;;;;;;4918612;29;20078;-81
2022/01/24 07:43:15;;;;;;;15.88;8.95;;;7.00;99.90;;;;;;4918246;29;20024;-80
2022/01/24 07:45:44;;;;;;;15.52;7.22;;;7.00;99.90;;;;;;4918198;29;20072;-81
2022/01/24 07:48:10;;;;;;;10.30;7.32;;;7.10;99.90;;;;;;4918695;29;20492;-81
2022/01/24 07:50:40;;;;;;;13.95;7.22;;;7.10;99.90;;;;;;4901360;29;20031;-83
2022/01/24 07:53:12;;;;;;;12.18;8.15;;;7.10;99.90;;;;;;4901374;29;20118;-82
2022/01/24 07:55:38;;;;;;;16.85;8.38;;;7.20;99.90;;;;;;4917383;29;20036;-79
2022/01/24 07:58:05;;;;;;;14.38;8.38;;;7.20;99.90;;;;;;4916443;29;20047;-79
2022/01/24 08:00:30;;;;;;;17.00;8.23;;;7.20;99.90;;;;;;4917060;29;20040;-81
2022/01/24 08:02:57;;;;;;;14.63;7.65;;;7.20;99.90;;;;;;4900628;29;20123;-81
2022/01/24 08:05:24;;;;;;;13.57;8.48;;;7.20;99.90;;;;;;4919273;29;20067;-81
2022/01/24 08:07:49;;;;;;;14.93;8.20;;;7.20;99.90;;;;;;4919198;29;20024;-79
2022/01/24 08:10:15;;;;;;;15.15;8.88;;;7.20;99.90;;;;;;4926201;29;20115;-80
2022/01/24 08:12:43;;;;;;;14.65;9.02;;;7.30;99.90;;;;;;4923463;29;20028;-81
2022/01/24 08:15:14;;;;;;;16.15;9.80;;;7.30;99.90;;;;;;4919176;29;20024;-80
2022/01/24 08:17:44;;;;;;;14.50;9.63;;;7.20;99.90;;;;;;4903685;29;20048;-83
2022/01/24 08:20:12;;;;;;;14.82;10.02;;;7.20;99.90;;;;;;4918874;29;20016;-82
2022/01/24 08:22:38;;;;;;;17.83;9.60;;;7.30;99.90;;;;;;4917685;29;20176;-82
2022/01/24 08:25:05;;;;;;;21.15;9.55;;;7.40;99.90;;;;;;4919555;29;20032;-83
2022/01/24 08:27:32;;;;;;;13.15;8.95;;;7.40;99.90;;;;;;4899226;29;20171;-83
2022/01/24 08:29:58;;;;;;;19.98;9.75;;;7.50;99.90;;;;;;4901993;29;20047;-83
2022/01/24 08:32:24;;;;;;;15.63;8.88;;;7.50;99.90;;;;;;4918786;29;20040;-84
2022/01/24 08:34:51;;;;;;;12.70;9.07;;;7.50;99.90;;;;;;4918458;29;20032;-83
2022/01/24 08:37:16;;;;;;;12.45;9.10;;;7.60;99.90;;;;;;4915300;29;20024;-82
2022/01/24 08:39:43;;;;;;;15.40;9.07;;;7.60;99.90;;;;;;4918720;29;20031;-84
2022/01/24 08:42:20;;;;;;;18.65;9.15;;;7.60;99.90;;;;;;4917753;29;20079;-85
2022/01/24 08:47:26;;;;;;;17.98;9.60;;;7.60;99.90;;;;;;4917824;29;20071;-83
2022/01/24 08:49:52;;;;;;;15.88;9.35;;;7.70;99.90;;;;;;4918725;29;20410;-86
2022/01/24 08:52:19;;;;;;;14.50;9.65;;;7.70;99.90;;;;;;4918652;29;20032;-85
2022/01/24 08:54:44;;;;;;;15.20;9.40;;;7.80;99.90;;;;;;4900680;29;20051;-84
2022/01/24 08:57:13;;;;;;;14.45;9.57;;;7.80;99.90;;;;;;4916887;29;20068;-84
2022/01/24 08:59:39;;;;;;;14.40;8.88;;;7.90;99.90;;;;;;4917380;29;20382;-83
2022/01/24 09:02:05;;;;;;;20.42;9.82;;;8.00;99.90;;;;;;4917602;29;20028;-83
2022/01/24 09:04:32;;;;;;;14.48;8.85;;;8.10;99.90;;;;;;4917808;29;20120;-83
2022/01/24 09:07:04;;;;;;;13.82;8.80;;;8.20;99.90;;;;;;4917631;29;20036;-85
2022/01/24 09:09:30;;;;;;;;;;;8.30;99.90;;;;;;4917578;29;20052;-79
2022/01/24 09:11:56;;;;;;;11.45;6.90;;;8.40;99.90;;;;;;4900493;29;19907;-81
2022/01/24 09:14:23;;;;;;;15.57;7.72;;;8.50;99.90;;;;;;4917473;29;20028;-83
2022/01/24 09:16:48;;;;;;;33.03;9.55;;;8.60;99.90;;;;;;4917363;29;20083;-77
2022/01/24 09:19:14;;;;;;;12.35;7.70;;;8.70;99.90;;;;;;4917603;29;20044;-83
2022/01/24 09:21:40;;;;;;;11.02;7.80;;;8.80;99.90;;;;;;4916973;29;20087;-83
2022/01/24 09:24:06;;;;;;;9.63;7.15;;;8.70;99.90;;;;;;4917341;29;20028;-86
2022/01/24 09:26:33;;;;;;;10.90;7.22;;;8.70;99.90;;;;;;4900454;29;20036;-82
2022/01/24 09:28:58;;;;;;;17.58;8.68;;;8.70;99.90;;;;;;4916535;29;20024;-85
2022/01/24 09:31:24;;;;;;;11.32;7.70;;;8.70;99.90;;;;;;4917371;29;20499;-84
2022/01/24 09:33:52;;;;;;;11.43;7.85;;;8.70;99.90;;;;;;4917148;29;20108;-82
2022/01/24 09:36:18;;;;;;;12.48;8.18;;;8.70;99.90;;;;;;4917115;29;20039;-84
2022/01/24 09:38:44;;;;;;;14.98;9.30;;;8.90;99.90;;;;;;4917131;29;20504;-83
2022/01/24 09:41:13;;;;;;;19.00;8.70;;;8.70;99.90;;;;;;4916763;29;20040;-87
2022/01/24 09:43:39;;;;;;;14.93;8.95;;;8.70;99.90;;;;;;4916558;29;20016;-88
2022/01/24 09:46:05;;;;;;;17.92;9.65;;;8.60;99.90;;;;;;4916667;29;20032;-83
2022/01/24 09:48:31;;;;;;;14.60;9.48;;;8.70;99.90;;;;;;4900234;29;20103;-83
2022/01/24 09:50:57;;;;;;;17.52;8.88;;;8.80;99.90;;;;;;4916175;29;20091;-84
2022/01/24 09:53:24;;;;;;;16.58;9.13;;;8.90;99.90;;;;;;4916495;29;20024;-83
2022/01/24 09:55:51;;;;;;;14.98;9.02;;;8.90;99.90;;;;;;4899476;29;20028;-85
2022/01/24 09:58:17;;;;;;;16.98;10.13;;;9.10;99.90;;;;;;4916965;29;20039;-85
2022/01/24 10:00:43;;;;;;;27.27;9.15;;;9.50;99.90;;;;;;4900358;29;20024;-80
2022/01/24 10:03:12;;;;;;;13.18;8.40;;;10.10;99.90;;;;;;4897799;29;20028;-82
2022/01/24 10:05:39;;;;;;;10.23;7.80;;;10.70;99.90;;;;;;4897502;29;20028;-82
2022/01/24 10:08:16;;;;;;;10.32;6.65;;;10.90;99.90;;;;;;4907351;29;20397;-82
2022/01/24 10:10:49;;;;;;;11.65;7.13;;;11.20;99.90;;;;;;4915465;29;20470;-82
2022/01/24 10:19:11;;;;;;;12.18;6.45;;;10.40;99.90;;;;;;4915190;29;20457;-81
2022/01/24 10:21:49;;;;;;;9.63;6.47;;;10.70;99.90;;;;;;4900463;29;20032;-81
2022/01/24 10:24:26;;;;;;;36.20;7.72;;;10.80;99.90;;;;;;4919542;29;20038;-83
2022/01/24 10:27:17;;;;;;;16.23;5.97;;;11.10;99.90;;;;;;4918668;29;20056;-84
2022/01/24 10:29:54;;;;;;;9.30;6.45;;;10.90;99.90;;;;;;4918673;29;20028;-82
2022/01/24 10:32:48;;;;;;;12.00;6.78;;;10.70;99.90;;;;;;4918755;29;20043;-79
2022/01/24 10:35:26;;;;;;;10.80;6.82;;;10.50;99.90;;;;;;4917976;29;20032;-84
2022/01/24 10:38:14;;;;;;;10.05;6.95;;;10.40;99.90;;;;;;4898783;29;20489;-80
2022/01/24 10:40:55;;;;;;;11.32;6.68;;;10.20;99.90;;;;;;4919711;29;20051;-82
2022/01/24 10:43:26;;;;;;;12.98;6.93;;;10.10;99.90;;;;;;4920181;29;20542;-85
2022/01/24 10:45:55;;;;;;;12.37;6.40;;;9.90;99.90;;;;;;4920733;29;20167;-88
2022/01/24 10:48:27;;;;;;;11.23;5.97;;;9.70;99.90;;;;;;4920049;29;20028;-85
2022/01/24 10:51:12;;;;;;;13.80;7.57;;;9.60;99.90;;;;;;4899923;29;20040;-84
2022/01/24 10:53:42;;;;;;;9.32;6.00;;;9.50;99.90;;;;;;4918542;29;20099;-82
2022/01/24 10:56:45;;;;;;;9.77;5.82;;;9.20;99.90;;;;;;4897607;29;20413;-82
2022/01/24 10:59:17;;;;;;;12.50;7.22;;;9.00;99.90;;;;;;4859705;29;20173;-84
2022/01/24 11:01:47;;;;;;;10.40;6.68;;;9.00;99.90;;;;;;4910689;29;20031;-85
2022/01/24 11:04:15;;;;;;;9.77;6.60;;;9.00;99.90;;;;;;4917001;29;20047;-84
2022/01/24 11:06:43;;;;;;;11.18;6.68;;;8.90;99.90;;;;;;4919298;29;20020;-85
2022/01/24 11:09:19;;;;;;;9.13;6.22;;;8.80;99.90;;;;;;4916584;29;20024;-80
2022/01/24 11:11:46;;;;;;;12.55;5.85;;;8.80;99.90;;;;;;4916283;29;20063;-83
2022/01/24 11:14:16;;;;;;;12.90;6.60;;;8.90;99.90;;;;;;4901736;29;20032;-80
2022/01/24 11:16:42;;;;;;;12.00;6.18;;;8.80;99.90;;;;;;4918435;29;20039;-80
2022/01/24 11:19:15;;;;;;;14.95;6.70;;;8.80;99.90;;;;;;4915182;29;20020;-83
2022/01/24 11:21:44;;;;;;;12.30;6.53;;;8.90;99.90;;;;;;4918974;29;20432;-82
2022/01/24 11:24:16;;;;;;;8.68;6.07;;;8.90;99.90;;;;;;4913960;29;20028;-84
2022/01/24 11:26:42;;;;;;;10.30;6.43;;;8.90;99.90;;;;;;4913934;29;20095;-81
2022/01/24 11:29:09;;;;;;;10.52;6.22;;;8.70;99.90;;;;;;4902113;29;20123;-82
2022/01/24 11:31:43;;;;;;;8.55;6.13;;;8.70;99.90;;;;;;4918687;29;20481;-82
2022/01/24 11:34:16;;;;;;;7.82;6.13;;;8.70;99.90;;;;;;4898684;29;20115;-83
2022/01/24 11:36:44;;;;;;;10.18;6.43;;;8.50;99.90;;;;;;4912919;29;20071;-83
2022/01/24 11:39:11;;;;;;;11.10;6.38;;;8.50;99.90;;;;;;4902239;29;20091;-76
2022/01/24 11:41:39;;;;;;;8.63;6.15;;;8.50;99.90;;;;;;4916306;29;20048;-84
2022/01/24 11:44:12;;;;;;;12.65;6.03;;;8.50;99.90;;;;;;4915802;29;20027;-80
2022/01/24 11:46:44;;;;;;;10.25;6.00;;;8.50;99.90;;;;;;4908372;29;20083;-77
2022/01/24 11:49:15;;;;;;;8.80;5.82;;;8.40;99.90;;;;;;4920057;29;20051;-86
2022/01/24 11:51:44;;;;;;;11.25;5.78;;;8.40;99.90;;;;;;4908190;29;20063;-85
2022/01/24 11:54:43;;;;;;;7.78;5.53;;;8.40;99.90;;;;;;4902462;29;20024;-85
2022/01/24 11:57:27;;;;;;;7.80;5.63;;;8.30;99.90;;;;;;4915755;29;20040;-82
2022/01/24 12:00:05;;;;;;;9.05;5.43;;;8.10;99.90;;;;;;4917162;29;20405;-80
2022/01/24 12:02:44;;;;;;;14.73;5.07;;;8.10;99.90;;;;;;4919636;29;20020;-81
2022/01/24 12:05:11;;;;;;;9.30;5.78;;;8.10;99.90;;;;;;4919412;29;20438;-82
2022/01/24 12:07:58;;;;;;;10.13;5.68;;;8.10;99.90;;;;;;4918502;29;20012;-82
2022/01/24 12:10:24;;;;;;;7.45;5.43;;;8.10;99.90;;;;;;4921521;29;20028;-87
2022/01/24 12:12:56;;;;;;;7.32;5.15;;;8.10;99.90;;;;;;4922835;29;20028;-84
2022/01/24 12:15:41;;;;;;;14.02;5.22;;;8.10;99.90;;;;;;4919585;29;20044;-83
2022/01/24 12:18:22;;;;;;;11.63;5.85;;;8.10;99.90;;;;;;4920713;29;20043;-86
2022/01/24 12:20:58;;;;;;;9.60;5.85;;;8.10;99.90;;;;;;4918040;29;20029;-81
2022/01/24 12:23:25;;;;;;;7.60;5.28;;;8.00;99.90;;;;;;4912562;29;20513;-85
2022/01/24 12:26:09;;;;;;;9.40;5.22;;;8.00;99.90;;;;;;4917949;29;20504;-87
2022/01/24 12:28:44;;;;;;;7.50;4.55;;;8.00;99.90;;;;;;4918229;29;20020;-86
2022/01/24 12:31:10;;;;;;;7.50;4.63;;;8.00;99.90;;;;;;4901657;29;20052;-86
2022/01/24 12:33:52;;;;;;;10.10;4.63;;;8.00;99.90;;;;;;4918304;29;20028;-81
2022/01/24 12:36:50;;;;;;;7.82;5.47;;;8.00;99.90;;;;;;4913777;29;20028;-81
2022/01/24 12:39:47;;;;;;;8.77;4.78;;;8.10;99.90;;;;;;4917630;29;20024;-84
2022/01/24 12:42:26;;;;;;;6.07;4.25;;;8.10;99.90;;;;;;4918594;29;20070;-81
2022/01/24 12:47:18;;;;;;;12.10;4.72;;;8.10;99.90;;;;;;4917639;29;20031;-77
2022/01/24 12:49:47;;;;;;;10.55;4.60;;;8.00;99.90;;;;;;4894838;29;20055;-79
2022/01/24 12:52:15;;;;;;;6.65;4.70;;;8.00;99.90;;;;;;4917001;29;20039;-81
2022/01/24 12:54:45;;;;;;;5.88;4.05;;;8.00;99.90;;;;;;4917705;29;20024;-77
2022/01/24 12:57:14;;;;;;;6.15;3.95;;;7.90;99.90;;;;;;4899871;29;20040;-78
2022/01/24 12:59:55;;;;;;;6.72;3.80;;;7.90;99.90;;;;;;4913778;29;20374;-77
2022/01/24 13:02:26;;;;;;;7.57;3.95;;;7.90;99.90;;;;;;4917148;29;20024;-78
2022/01/24 13:05:02;;;;;;;7.18;4.13;;;7.90;99.90;;;;;;4916715;29;20126;-77
2022/01/24 13:07:30;;;;;;;7.25;4.43;;;7.90;99.90;;;;;;4916310;29;20039;-76
2022/01/24 13:10:05;;;;;;;9.73;3.88;;;7.80;99.90;;;;;;4916661;29;20112;-77
2022/01/24 13:12:31;;;;;;;10.30;4.00;;;7.80;99.90;;;;;;4900105;29;20024;-76
2022/01/24 13:15:01;;;;;;;6.03;3.90;;;7.80;99.90;;;;;;4916408;29;20026;-83
2022/01/24 13:23:10;;;;;;;6.80;3.22;;;7.70;99.90;;;;;;4847873;29;20094;-79
2022/01/24 13:25:38;;;;;;;7.88;3.63;;;7.70;99.90;;;;;;4917164;29;20036;-79
2022/01/24 13:28:12;;;;;;;5.03;3.83;;;7.60;99.90;;;;;;4923242;29;20032;-81
2022/01/24 13:30:45;;;;;;;4.25;3.22;;;7.60;99.90;;;;;;4916681;29;20028;-79
2022/01/24 13:33:20;;;;;;;5.07;3.17;;;7.50;99.90;;;;;;4915179;29;20507;-81
2022/01/24 13:35:50;;;;;;;6.40;3.08;;;7.50;99.90;;;;;;4910023;29;20031;-81
2022/01/24 13:38:31;;;;;;;8.13;3.30;;;7.60;99.90;;;;;;4915137;29;20103;-78
2022/01/24 13:41:05;;;;;;;4.28;3.22;;;7.60;99.90;;;;;;4917342;29;20047;-78
2022/01/24 13:43:45;;;;;;;9.50;3.28;;;7.60;99.90;;;;;;4914100;29;20115;-75
2022/01/24 13:46:16;;;;;;;11.13;3.38;;;7.60;99.90;;;;;;4910880;29;20036;-74
2022/01/24 13:48:50;;;;;;;6.28;3.70;;;7.50;99.90;;;;;;4912505;29;20012;-77
2022/01/24 13:51:20;;;;;;;6.68;3.15;;;7.40;99.90;;;;;;4914497;29;20032;-77
2022/01/24 13:53:53;;;;;;;6.72;3.63;;;7.30;99.90;;;;;;4906686;29;20054;-85
2022/01/24 13:56:35;;;;;;;6.35;3.60;;;7.40;99.90;;;;;;4912594;29;20469;-79
2022/01/24 13:59:29;;;;;;;4.30;3.20;;;7.30;99.90;;;;;;4908883;29;20093;-79
2022/01/24 14:02:15;;;;;;;4.93;3.35;;;7.30;99.90;;;;;;4912476;29;20032;-83
2022/01/24 14:04:54;;;;;;;7.78;3.78;;;7.30;99.90;;;;;;4903538;29;20396;-83
2022/01/24 14:07:22;;;;;;;4.22;3.17;;;7.20;99.90;;;;;;4903127;29;20032;-86
2022/01/24 14:09:53;;;;;;;6.20;3.22;;;7.20;99.90;;;;;;4901996;29;20031;-86
2022/01/24 14:12:27;;;;;;;4.50;3.67;;;7.20;99.90;;;;;;4918564;29;20047;-87
2022/01/24 14:15:08;;;;;;;3.58;2.92;;;7.20;99.90;;;;;;4917222;29;20386;-76
2022/01/24 14:20:08;;;;;;;7.50;3.28;;;7.10;99.90;;;;;;4914579;29;20032;-73
2022/01/24 14:22:41;;;;;;;11.45;3.13;;;7.10;99.90;;;;;;4917081;29;20039;-91
2022/01/24 14:25:31;;;;;;;5.90;3.60;;;6.90;99.90;;;;;;4912021;29;20029;-91
2022/01/24 14:27:59;;;;;;;5.93;3.40;;;7.00;99.90;;;;;;4916891;29;20108;-87
2022/01/24 14:30:25;;;;;;;6.07;3.47;;;7.00;99.90;;;;;;4918039;29;20024;-89
2022/01/24 14:33:11;;;;;;;5.97;3.58;;;7.00;99.90;;;;;;4917955;29;20043;-85
2022/01/24 14:36:01;;;;;;;6.22;3.38;;;7.00;99.90;;;;;;4918430;29;20030;-83
2022/01/24 14:38:37;;;;;;;7.70;3.42;;;7.00;99.90;;;;;;4916531;29;20039;-85
2022/01/24 14:41:10;;;;;;;6.22;3.42;;;7.00;99.90;;;;;;4916463;29;20060;-88
2022/01/24 14:46:31;;;;;;;6.32;3.25;;;7.00;99.90;;;;;;4904360;29;20440;-88
2022/01/24 14:49:03;;;;;;;7.05;3.85;;;7.00;99.90;;;;;;4913912;29;20031;-83
2022/01/24 14:51:32;;;;;;;7.10;3.85;;;7.00;99.90;;;;;;4916454;29;20024;-87
2022/01/24 14:54:01;;;;;;;7.18;3.40;;;6.90;99.90;;;;;;4916306;29;20099;-82
2022/01/24 14:56:29;;;;;;;4.32;3.13;;;6.90;99.90;;;;;;4915876;29;20055;-82
2022/01/24 14:58:55;;;;;;;7.25;3.53;;;6.90;99.90;;;;;;4893797;29;20373;-77
2022/01/24 15:01:21;;;;;;;7.93;3.83;;;6.80;99.90;;;;;;4914833;29;20091;-80
2022/01/24 15:03:49;;;;;;;4.70;3.65;;;6.80;99.90;;;;;;4897614;29;20030;-81
2022/01/24 15:06:17;;;;;;;5.28;3.30;;;6.80;99.90;;;;;;4913104;29;20384;-80
2022/01/24 15:08:46;;;;;;;4.70;3.20;;;6.80;99.90;;;;;;4914218;29;20031;-80